sensor_id;sensor_type;location;lat;lon;timestamp;P1;durP1;ratioP1;P2;durP2;ratioP2
29320;SDS011;16323;51.130;6.612;2023-05-10T00:00:38;1.23;;;1.10;;
29320;SDS011;16323;51.130;6.612;2023-05-10T00:03:05;1.15;;;1.00;;
29320;SDS011;16323;51.130;6.612;2023-05-10T00:05:32;0.80;;;0.73;;
29320;SDS011;16323;51.130;6.612;2023-05-10T00:07:59;1.02;;;0.93;;
29320;SDS011;16323;51.130;6.612;2023-05-10T00:10:27;1.48;;;1.08;;
29320;SDS011;16323;51.130;6.612;2023-05-10T00:12:53;0.80;;;0.80;;
29320;SDS011;16323;51.130;6.612;2023-05-10T00:15:20;1.23;;;1.00;;
29320;SDS011;16323;51.130;6.612;2023-05-10T00:17:47;1.08;;;0.90;;
29320;SDS011;16323;51.130;6.612;2023-05-10T00:20:14;0.77;;;0.77;;
29320;SDS011;16323;51.130;6.612;2023-05-10T00:22:41;1.00;;;0.80;;
29320;SDS011;16323;51.130;6.612;2023-05-10T00:25:08;1.23;;;1.00;;
29320;SDS011;16323;51.130;6.612;2023-05-10T00:27:36;0.90;;;0.80;;
29320;SDS011;16323;51.130;6.612;2023-05-10T00:30:03;0.90;;;0.70;;
29320;SDS011;16323;51.130;6.612;2023-05-10T00:32:31;0.80;;;0.70;;
29320;SDS011;16323;51.130;6.612;2023-05-10T00:34:58;0.98;;;0.88;;
29320;SDS011;16323;51.130;6.612;2023-05-10T00:37:24;0.80;;;0.80;;
29320;SDS011;16323;51.130;6.612;2023-05-10T00:39:51;0.82;;;0.77;;
29320;SDS011;16323;51.130;6.612;2023-05-10T00:42:18;0.90;;;0.70;;
29320;SDS011;16323;51.130;6.612;2023-05-10T00:44:46;1.13;;;1.02;;
29320;SDS011;16323;51.130;6.612;2023-05-10T00:47:13;1.00;;;0.85;;
29320;SDS011;16323;51.130;6.612;2023-05-10T00:49:40;0.90;;;0.75;;
29320;SDS011;16323;51.130;6.612;2023-05-10T00:52:07;0.73;;;0.70;;
29320;SDS011;16323;51.130;6.612;2023-05-10T00:54:34;1.02;;;0.90;;
29320;SDS011;16323;51.130;6.612;2023-05-10T00:57:02;0.70;;;0.70;;
29320;SDS011;16323;51.130;6.612;2023-05-10T00:59:29;1.00;;;0.70;;
29320;SDS011;16323;51.130;6.612;2023-05-10T01:01:57;0.80;;;0.70;;
29320;SDS011;16323;51.130;6.612;2023-05-10T01:04:24;0.70;;;0.70;;
29320;SDS011;16323;51.130;6.612;2023-05-10T01:06:51;0.57;;;0.50;;
29320;SDS011;16323;51.130;6.612;2023-05-10T01:09:18;0.80;;;0.50;;
29320;SDS011;16323;51.130;6.612;2023-05-10T01:11:45;0.93;;;0.60;;
29320;SDS011;16323;51.130;6.612;2023-05-10T01:14:12;0.70;;;0.60;;
29320;SDS011;16323;51.130;6.612;2023-05-10T01:16:41;1.13;;;0.60;;
29320;SDS011;16323;51.130;6.612;2023-05-10T01:19:12;0.47;;;0.47;;
29320;SDS011;16323;51.130;6.612;2023-05-10T01:21:47;0.80;;;0.70;;
29320;SDS011;16323;51.130;6.612;2023-05-10T01:24:31;0.90;;;0.60;;
29320;SDS011;16323;51.130;6.612;2023-05-10T01:27:20;1.30;;;0.50;;
29320;SDS011;16323;51.130;6.612;2023-05-10T01:30:08;0.60;;;0.57;;
29320;SDS011;16323;51.130;6.612;2023-05-10T01:32:52;0.60;;;0.55;;
29320;SDS011;16323;51.130;6.612;2023-05-10T01:35:26;1.05;;;0.50;;
29320;SDS011;16323;51.130;6.612;2023-05-10T01:37:59;1.02;;;0.70;;
29320;SDS011;16323;51.130;6.612;2023-05-10T01:40:35;0.73;;;0.60;;
29320;SDS011;16323;51.130;6.612;2023-05-10T01:43:07;1.27;;;0.82;;
29320;SDS011;16323;51.130;6.612;2023-05-10T01:45:41;0.60;;;0.60;;
29320;SDS011;16323;51.130;6.612;2023-05-10T01:48:18;0.82;;;0.60;;
29320;SDS011;16323;51.130;6.612;2023-05-10T01:50:46;1.02;;;0.57;;
29320;SDS011;16323;51.130;6.612;2023-05-10T01:53:17;0.50;;;0.50;;
29320;SDS011;16323;51.130;6.612;2023-05-10T01:55:47;0.65;;;0.60;;
29320;SDS011;16323;51.130;6.612;2023-05-10T01:58:18;2.45;;;0.77;;
29320;SDS011;16323;51.130;6.612;2023-05-10T02:00:47;0.95;;;0.60;;
29320;SDS011;16323;51.130;6.612;2023-05-10T02:03:18;0.50;;;0.47;;
29320;SDS011;16323;51.130;6.612;2023-05-10T02:05:46;0.85;;;0.60;;
29320;SDS011;16323;51.130;6.612;2023-05-10T02:08:15;1.00;;;0.60;;
29320;SDS011;16323;51.130;6.612;2023-05-10T02:10:44;2.22;;;0.68;;
29320;SDS011;16323;51.130;6.612;2023-05-10T02:13:12;0.60;;;0.50;;
29320;SDS011;16323;51.130;6.612;2023-05-10T02:15:40;0.50;;;0.50;;
29320;SDS011;16323;51.130;6.612;2023-05-10T02:18:09;1.92;;;0.60;;
29320;SDS011;16323;51.130;6.612;2023-05-10T02:20:39;1.25;;;0.60;;
29320;SDS011;16323;51.130;6.612;2023-05-10T02:23:06;1.63;;;0.60;;
29320;SDS011;16323;51.130;6.612;2023-05-10T02:25:34;0.70;;;0.50;;
29320;SDS011;16323;51.130;6.612;2023-05-10T02:28:04;0.85;;;0.50;;
29320;SDS011;16323;51.130;6.612;2023-05-10T02:30:32;0.75;;;0.60;;
29320;SDS011;16323;51.130;6.612;2023-05-10T02:33:01;0.70;;;0.55;;
29320;SDS011;16323;51.130;6.612;2023-05-10T02:35:29;0.70;;;0.45;;
29320;SDS011;16323;51.130;6.612;2023-05-10T02:37:59;1.25;;;0.50;;
29320;SDS011;16323;51.130;6.612;2023-05-10T02:40:27;0.73;;;0.63;;
29320;SDS011;16323;51.130;6.612;2023-05-10T02:42:56;0.93;;;0.50;;
29320;SDS011;16323;51.130;6.612;2023-05-10T02:45:26;0.98;;;0.68;;
29320;SDS011;16323;51.130;6.612;2023-05-10T02:47:55;1.55;;;0.60;;
29320;SDS011;16323;51.130;6.612;2023-05-10T02:50:22;0.70;;;0.55;;
29320;SDS011;16323;51.130;6.612;2023-05-10T02:52:54;0.65;;;0.65;;
29320;SDS011;16323;51.130;6.612;2023-05-10T02:55:31;0.57;;;0.57;;
29320;SDS011;16323;51.130;6.612;2023-05-10T02:58:01;0.80;;;0.70;;
29320;SDS011;16323;51.130;6.612;2023-05-10T03:00:28;1.85;;;0.90;;
29320;SDS011;16323;51.130;6.612;2023-05-10T03:02:55;0.60;;;0.60;;
29320;SDS011;16323;51.130;6.612;2023-05-10T03:05:22;0.75;;;0.70;;
29320;SDS011;16323;51.130;6.612;2023-05-10T03:07:49;0.93;;;0.70;;
29320;SDS011;16323;51.130;6.612;2023-05-10T03:10:16;1.23;;;0.70;;
29320;SDS011;16323;51.130;6.612;2023-05-10T03:12:51;1.25;;;0.95;;
29320;SDS011;16323;51.130;6.612;2023-05-10T03:15:25;0.90;;;0.80;;
29320;SDS011;16323;51.130;6.612;2023-05-10T03:18:04;1.00;;;0.80;;
29320;SDS011;16323;51.130;6.612;2023-05-10T03:20:35;1.40;;;0.90;;
29320;SDS011;16323;51.130;6.612;2023-05-10T03:23:07;0.98;;;0.85;;
29320;SDS011;16323;51.130;6.612;2023-05-10T03:25:39;0.85;;;0.80;;
29320;SDS011;16323;51.130;6.612;2023-05-10T03:28:10;0.93;;;0.82;;
29320;SDS011;16323;51.130;6.612;2023-05-10T03:30:38;0.98;;;0.80;;
29320;SDS011;16323;51.130;6.612;2023-05-10T03:33:06;1.08;;;0.95;;
29320;SDS011;16323;51.130;6.612;2023-05-10T03:35:33;1.00;;;0.90;;
29320;SDS011;16323;51.130;6.612;2023-05-10T03:38:00;1.27;;;1.00;;
29320;SDS011;16323;51.130;6.612;2023-05-10T03:40:27;1.33;;;1.10;;
29320;SDS011;16323;51.130;6.612;2023-05-10T03:42:56;1.25;;;1.00;;
29320;SDS011;16323;51.130;6.612;2023-05-10T03:45:25;2.00;;;1.20;;
29320;SDS011;16323;51.130;6.612;2023-05-10T03:47:51;1.40;;;1.10;;
29320;SDS011;16323;51.130;6.612;2023-05-10T03:50:19;1.30;;;1.20;;
29320;SDS011;16323;51.130;6.612;2023-05-10T03:52:45;1.38;;;1.20;;
29320;SDS011;16323;51.130;6.612;2023-05-10T03:55:12;1.27;;;1.17;;
29320;SDS011;16323;51.130;6.612;2023-05-10T03:57:39;1.50;;;1.35;;
29320;SDS011;16323;51.130;6.612;2023-05-10T04:00:06;1.38;;;1.10;;
29320;SDS011;16323;51.130;6.612;2023-05-10T04:02:35;1.50;;;1.30;;
29320;SDS011;16323;51.130;6.612;2023-05-10T04:05:02;1.90;;;1.35;;
29320;SDS011;16323;51.130;6.612;2023-05-10T04:07:29;2.05;;;1.40;;
29320;SDS011;16323;51.130;6.612;2023-05-10T04:09:56;1.90;;;1.30;;
29320;SDS011;16323;51.130;6.612;2023-05-10T04:12:23;2.13;;;1.35;;
29320;SDS011;16323;51.130;6.612;2023-05-10T04:14:50;2.08;;;1.40;;
29320;SDS011;16323;51.130;6.612;2023-05-10T04:17:17;2.33;;;1.35;;
29320;SDS011;16323;51.130;6.612;2023-05-10T04:19:45;2.38;;;1.30;;
29320;SDS011;16323;51.130;6.612;2023-05-10T04:22:11;1.63;;;1.35;;
29320;SDS011;16323;51.130;6.612;2023-05-10T04:24:38;3.67;;;1.63;;
29320;SDS011;16323;51.130;6.612;2023-05-10T04:27:05;2.17;;;1.60;;
29320;SDS011;16323;51.130;6.612;2023-05-10T04:29:32;3.25;;;1.55;;
29320;SDS011;16323;51.130;6.612;2023-05-10T04:31:58;2.33;;;1.70;;
29320;SDS011;16323;51.130;6.612;2023-05-10T04:34:25;3.47;;;2.03;;
29320;SDS011;16323;51.130;6.612;2023-05-10T04:36:53;1.70;;;1.40;;
29320;SDS011;16323;51.130;6.612;2023-05-10T04:39:20;1.77;;;1.40;;
29320;SDS011;16323;51.130;6.612;2023-05-10T04:41:47;2.42;;;1.30;;
29320;SDS011;16323;51.130;6.612;2023-05-10T04:44:14;1.88;;;1.30;;
29320;SDS011;16323;51.130;6.612;2023-05-10T04:46:40;1.33;;;1.17;;
29320;SDS011;16323;51.130;6.612;2023-05-10T04:49:07;1.40;;;1.10;;
29320;SDS011;16323;51.130;6.612;2023-05-10T04:51:34;1.42;;;1.15;;
29320;SDS011;16323;51.130;6.612;2023-05-10T04:54:02;1.23;;;1.10;;
29320;SDS011;16323;51.130;6.612;2023-05-10T04:56:29;1.33;;;1.10;;
29320;SDS011;16323;51.130;6.612;2023-05-10T04:58:55;2.28;;;1.20;;
29320;SDS011;16323;51.130;6.612;2023-05-10T05:01:22;1.60;;;1.27;;
29320;SDS011;16323;51.130;6.612;2023-05-10T05:03:49;1.30;;;1.10;;
29320;SDS011;16323;51.130;6.612;2023-05-10T05:06:17;1.70;;;1.20;;
29320;SDS011;16323;51.130;6.612;2023-05-10T05:08:45;2.17;;;1.30;;
29320;SDS011;16323;51.130;6.612;2023-05-10T05:11:15;1.42;;;1.17;;
29320;SDS011;16323;51.130;6.612;2023-05-10T05:13:42;1.20;;;1.10;;
29320;SDS011;16323;51.130;6.612;2023-05-10T05:16:09;1.65;;;1.27;;
29320;SDS011;16323;51.130;6.612;2023-05-10T05:18:36;1.45;;;1.10;;
29320;SDS011;16323;51.130;6.612;2023-05-10T05:21:02;1.70;;;1.20;;
29320;SDS011;16323;51.130;6.612;2023-05-10T05:23:29;1.50;;;1.05;;
29320;SDS011;16323;51.130;6.612;2023-05-10T05:25:56;1.27;;;1.08;;
29320;SDS011;16323;51.130;6.612;2023-05-10T05:28:24;1.33;;;1.00;;
29320;SDS011;16323;51.130;6.612;2023-05-10T05:30:51;1.17;;;0.98;;
29320;SDS011;16323;51.130;6.612;2023-05-10T05:33:18;1.40;;;1.00;;
29320;SDS011;16323;51.130;6.612;2023-05-10T05:35:44;1.77;;;1.23;;
29320;SDS011;16323;51.130;6.612;2023-05-10T05:38:15;1.42;;;1.08;;
29320;SDS011;16323;51.130;6.612;2023-05-10T05:40:42;1.33;;;1.10;;
29320;SDS011;16323;51.130;6.612;2023-05-10T05:43:09;2.13;;;1.00;;
29320;SDS011;16323;51.130;6.612;2023-05-10T05:45:37;1.42;;;1.17;;
29320;SDS011;16323;51.130;6.612;2023-05-10T05:48:04;1.90;;;1.20;;
29320;SDS011;16323;51.130;6.612;2023-05-10T05:50:31;1.33;;;1.10;;
29320;SDS011;16323;51.130;6.612;2023-05-10T05:52:58;1.70;;;0.90;;
29320;SDS011;16323;51.130;6.612;2023-05-10T05:55:24;1.80;;;1.00;;
29320;SDS011;16323;51.130;6.612;2023-05-10T05:57:51;1.60;;;1.02;;
29320;SDS011;16323;51.130;6.612;2023-05-10T06:00:18;1.35;;;1.10;;
29320;SDS011;16323;51.130;6.612;2023-05-10T06:02:47;1.50;;;1.20;;
29320;SDS011;16323;51.130;6.612;2023-05-10T06:05:14;1.95;;;1.40;;
29320;SDS011;16323;51.130;6.612;2023-05-10T06:07:41;1.98;;;1.30;;
29320;SDS011;16323;51.130;6.612;2023-05-10T06:10:08;1.35;;;1.17;;
29320;SDS011;16323;51.130;6.612;2023-05-10T06:12:35;2.00;;;1.50;;
29320;SDS011;16323;51.130;6.612;2023-05-10T06:15:01;3.53;;;1.30;;
29320;SDS011;16323;51.130;6.612;2023-05-10T06:17:28;2.45;;;1.30;;
29320;SDS011;16323;51.130;6.612;2023-05-10T06:19:57;1.13;;;1.02;;
29320;SDS011;16323;51.130;6.612;2023-05-10T06:22:23;1.20;;;1.10;;
29320;SDS011;16323;51.130;6.612;2023-05-10T06:24:50;1.60;;;1.05;;
29320;SDS011;16323;51.130;6.612;2023-05-10T06:27:17;1.60;;;1.30;;
29320;SDS011;16323;51.130;6.612;2023-05-10T06:29:44;1.90;;;1.00;;
29320;SDS011;16323;51.130;6.612;2023-05-10T06:32:10;1.63;;;1.45;;
29320;SDS011;16323;51.130;6.612;2023-05-10T06:34:37;2.40;;;1.20;;
29320;SDS011;16323;51.130;6.612;2023-05-10T06:37:05;2.50;;;1.60;;
29320;SDS011;16323;51.130;6.612;2023-05-10T06:39:32;3.08;;;1.42;;
29320;SDS011;16323;51.130;6.612;2023-05-10T06:41:59;2.45;;;1.60;;
29320;SDS011;16323;51.130;6.612;2023-05-10T06:44:26;2.95;;;1.80;;
29320;SDS011;16323;51.130;6.612;2023-05-10T06:46:54;1.52;;;1.40;;
29320;SDS011;16323;51.130;6.612;2023-05-10T06:49:21;2.25;;;1.48;;
29320;SDS011;16323;51.130;6.612;2023-05-10T06:51:48;1.73;;;1.30;;
29320;SDS011;16323;51.130;6.612;2023-05-10T06:54:16;2.00;;;1.48;;
29320;SDS011;16323;51.130;6.612;2023-05-10T06:56:43;2.83;;;1.60;;
29320;SDS011;16323;51.130;6.612;2023-05-10T06:59:09;1.85;;;1.42;;
29320;SDS011;16323;51.130;6.612;2023-05-10T07:01:37;2.13;;;1.52;;
29320;SDS011;16323;51.130;6.612;2023-05-10T07:04:04;2.25;;;1.45;;
29320;SDS011;16323;51.130;6.612;2023-05-10T07:06:32;1.65;;;1.33;;
29320;SDS011;16323;51.130;6.612;2023-05-10T07:08:59;2.25;;;1.48;;
29320;SDS011;16323;51.130;6.612;2023-05-10T07:11:27;1.85;;;1.55;;
29320;SDS011;16323;51.130;6.612;2023-05-10T07:13:54;2.28;;;1.58;;
29320;SDS011;16323;51.130;6.612;2023-05-10T07:16:21;3.00;;;1.40;;
29320;SDS011;16323;51.130;6.612;2023-05-10T07:18:48;2.63;;;1.40;;
29320;SDS011;16323;51.130;6.612;2023-05-10T07:21:15;2.15;;;1.55;;
29320;SDS011;16323;51.130;6.612;2023-05-10T07:23:42;2.10;;;1.50;;
29320;SDS011;16323;51.130;6.612;2023-05-10T07:26:09;1.80;;;1.50;;
29320;SDS011;16323;51.130;6.612;2023-05-10T07:28:37;2.67;;;1.55;;
29320;SDS011;16323;51.130;6.612;2023-05-10T07:31:04;3.17;;;1.67;;
29320;SDS011;16323;51.130;6.612;2023-05-10T07:33:31;2.83;;;1.92;;
29320;SDS011;16323;51.130;6.612;2023-05-10T07:35:57;2.78;;;1.83;;
29320;SDS011;16323;51.130;6.612;2023-05-10T07:38:24;2.22;;;1.70;;
29320;SDS011;16323;51.130;6.612;2023-05-10T07:40:51;3.08;;;1.92;;
29320;SDS011;16323;51.130;6.612;2023-05-10T07:43:18;4.30;;;2.20;;
29320;SDS011;16323;51.130;6.612;2023-05-10T07:45:46;3.13;;;2.13;;
29320;SDS011;16323;51.130;6.612;2023-05-10T07:48:13;2.92;;;1.88;;
29320;SDS011;16323;51.130;6.612;2023-05-10T07:50:39;3.30;;;2.15;;
29320;SDS011;16323;51.130;6.612;2023-05-10T07:53:06;3.42;;;2.22;;
29320;SDS011;16323;51.130;6.612;2023-05-10T07:55:33;3.35;;;2.08;;
29320;SDS011;16323;51.130;6.612;2023-05-10T07:58:00;2.40;;;1.98;;
29320;SDS011;16323;51.130;6.612;2023-05-10T08:00:27;3.58;;;2.38;;
29320;SDS011;16323;51.130;6.612;2023-05-10T08:02:55;4.93;;;2.38;;
29320;SDS011;16323;51.130;6.612;2023-05-10T08:05:21;5.90;;;2.92;;
29320;SDS011;16323;51.130;6.612;2023-05-10T08:07:48;5.72;;;3.00;;
29320;SDS011;16323;51.130;6.612;2023-05-10T08:10:15;4.65;;;3.05;;
29320;SDS011;16323;51.130;6.612;2023-05-10T08:12:42;5.25;;;2.88;;
29320;SDS011;16323;51.130;6.612;2023-05-10T08:15:09;6.95;;;3.50;;
29320;SDS011;16323;51.130;6.612;2023-05-10T08:17:36;4.97;;;3.17;;
29320;SDS011;16323;51.130;6.612;2023-05-10T08:20:05;6.80;;;3.80;;
29320;SDS011;16323;51.130;6.612;2023-05-10T08:22:32;4.97;;;3.28;;
29320;SDS011;16323;51.130;6.612;2023-05-10T08:24:59;8.63;;;3.58;;
29320;SDS011;16323;51.130;6.612;2023-05-10T08:27:26;7.35;;;3.80;;
29320;SDS011;16323;51.130;6.612;2023-05-10T08:29:53;4.68;;;2.92;;
29320;SDS011;16323;51.130;6.612;2023-05-10T08:32:19;6.65;;;3.35;;
29320;SDS011;16323;51.130;6.612;2023-05-10T08:34:46;4.53;;;3.00;;
29320;SDS011;16323;51.130;6.612;2023-05-10T08:37:14;6.15;;;3.20;;
29320;SDS011;16323;51.130;6.612;2023-05-10T08:39:41;5.13;;;3.13;;
29320;SDS011;16323;51.130;6.612;2023-05-10T08:42:08;4.80;;;3.03;;
29320;SDS011;16323;51.130;6.612;2023-05-10T08:44:35;4.55;;;3.10;;
29320;SDS011;16323;51.130;6.612;2023-05-10T08:47:04;5.45;;;3.35;;
29320;SDS011;16323;51.130;6.612;2023-05-10T08:49:32;5.30;;;3.25;;
29320;SDS011;16323;51.130;6.612;2023-05-10T08:52:00;5.50;;;3.40;;
29320;SDS011;16323;51.130;6.612;2023-05-10T08:54:32;5.75;;;3.40;;
29320;SDS011;16323;51.130;6.612;2023-05-10T08:56:59;4.78;;;3.15;;
29320;SDS011;16323;51.130;6.612;2023-05-10T08:59:26;5.65;;;3.38;;
29320;SDS011;16323;51.130;6.612;2023-05-10T09:01:53;5.13;;;2.95;;
29320;SDS011;16323;51.130;6.612;2023-05-10T09:04:23;4.43;;;3.30;;
29320;SDS011;16323;51.130;6.612;2023-05-10T09:06:51;5.32;;;3.13;;
29320;SDS011;16323;51.130;6.612;2023-05-10T09:09:17;5.45;;;3.60;;
29320;SDS011;16323;51.130;6.612;2023-05-10T09:11:46;4.47;;;2.80;;
29320;SDS011;16323;51.130;6.612;2023-05-10T09:14:13;4.20;;;3.03;;
29320;SDS011;16323;51.130;6.612;2023-05-10T09:16:42;5.30;;;3.08;;
29320;SDS011;16323;51.130;6.612;2023-05-10T09:19:09;3.80;;;2.72;;
29320;SDS011;16323;51.130;6.612;2023-05-10T09:21:36;4.75;;;2.92;;
29320;SDS011;16323;51.130;6.612;2023-05-10T09:24:03;4.97;;;3.15;;
29320;SDS011;16323;51.130;6.612;2023-05-10T09:26:31;4.72;;;3.03;;
29320;SDS011;16323;51.130;6.612;2023-05-10T09:28:59;5.00;;;2.97;;
29320;SDS011;16323;51.130;6.612;2023-05-10T09:34:10;4.55;;;3.20;;
29320;SDS011;16323;51.130;6.612;2023-05-10T09:36:36;5.78;;;3.30;;
29320;SDS011;16323;51.130;6.612;2023-05-10T09:39:20;4.57;;;3.03;;
29320;SDS011;16323;51.130;6.612;2023-05-10T09:41:47;4.47;;;2.65;;
29320;SDS011;16323;51.130;6.612;2023-05-10T09:44:17;4.40;;;2.85;;
29320;SDS011;16323;51.130;6.612;2023-05-10T09:46:48;3.80;;;2.58;;
29320;SDS011;16323;51.130;6.612;2023-05-10T09:49:17;4.07;;;2.67;;
29320;SDS011;16323;51.130;6.612;2023-05-10T09:51:44;4.15;;;2.72;;
29320;SDS011;16323;51.130;6.612;2023-05-10T09:54:12;5.25;;;3.13;;
29320;SDS011;16323;51.130;6.612;2023-05-10T09:56:39;4.65;;;3.25;;
29320;SDS011;16323;51.130;6.612;2023-05-10T09:59:07;4.10;;;3.00;;
29320;SDS011;16323;51.130;6.612;2023-05-10T10:01:36;4.07;;;3.08;;
29320;SDS011;16323;51.130;6.612;2023-05-10T10:04:04;3.83;;;2.90;;
29320;SDS011;16323;51.130;6.612;2023-05-10T10:06:35;4.53;;;2.80;;
29320;SDS011;16323;51.130;6.612;2023-05-10T10:09:03;4.63;;;2.55;;
29320;SDS011;16323;51.130;6.612;2023-05-10T10:11:31;3.13;;;2.53;;
29320;SDS011;16323;51.130;6.612;2023-05-10T10:13:57;4.97;;;2.67;;
29320;SDS011;16323;51.130;6.612;2023-05-10T10:16:24;4.03;;;2.53;;
29320;SDS011;16323;51.130;6.612;2023-05-10T10:18:54;4.43;;;2.88;;
29320;SDS011;16323;51.130;6.612;2023-05-10T10:21:21;4.55;;;2.90;;
29320;SDS011;16323;51.130;6.612;2023-05-10T10:23:48;3.85;;;2.72;;
29320;SDS011;16323;51.130;6.612;2023-05-10T10:26:15;3.72;;;2.50;;
29320;SDS011;16323;51.130;6.612;2023-05-10T10:28:46;3.80;;;2.35;;
29320;SDS011;16323;51.130;6.612;2023-05-10T10:31:20;5.35;;;2.90;;
29320;SDS011;16323;51.130;6.612;2023-05-10T10:33:58;4.90;;;2.70;;
29320;SDS011;16323;51.130;6.612;2023-05-10T10:36:27;4.03;;;2.85;;
29320;SDS011;16323;51.130;6.612;2023-05-10T10:38:58;2.70;;;2.28;;
29320;SDS011;16323;51.130;6.612;2023-05-10T10:41:29;3.13;;;2.20;;
29320;SDS011;16323;51.130;6.612;2023-05-10T10:46:58;4.60;;;2.42;;
29320;SDS011;16323;51.130;6.612;2023-05-10T10:49:29;3.53;;;2.20;;
29320;SDS011;16323;51.130;6.612;2023-05-10T10:52:13;3.78;;;2.33;;
29320;SDS011;16323;51.130;6.612;2023-05-10T10:54:44;3.35;;;2.40;;
29320;SDS011;16323;51.130;6.612;2023-05-10T10:57:17;3.15;;;2.47;;
29320;SDS011;16323;51.130;6.612;2023-05-10T10:59:46;2.53;;;2.03;;
29320;SDS011;16323;51.130;6.612;2023-05-10T11:05:01;3.08;;;2.22;;
29320;SDS011;16323;51.130;6.612;2023-05-10T11:07:59;3.97;;;2.03;;
29320;SDS011;16323;51.130;6.612;2023-05-10T11:10:32;3.03;;;2.28;;
29320;SDS011;16323;51.130;6.612;2023-05-10T11:12:59;3.05;;;2.15;;
29320;SDS011;16323;51.130;6.612;2023-05-10T11:15:30;3.63;;;2.30;;
29320;SDS011;16323;51.130;6.612;2023-05-10T11:17:58;3.22;;;2.40;;
29320;SDS011;16323;51.130;6.612;2023-05-10T11:20:28;3.33;;;2.50;;
29320;SDS011;16323;51.130;6.612;2023-05-10T11:23:10;2.90;;;2.22;;
29320;SDS011;16323;51.130;6.612;2023-05-10T11:25:41;4.05;;;2.38;;
29320;SDS011;16323;51.130;6.612;2023-05-10T11:28:09;5.18;;;2.30;;
29320;SDS011;16323;51.130;6.612;2023-05-10T11:30:36;3.63;;;2.50;;
29320;SDS011;16323;51.130;6.612;2023-05-10T11:33:04;2.42;;;1.80;;
29320;SDS011;16323;51.130;6.612;2023-05-10T11:35:32;2.70;;;1.98;;
29320;SDS011;16323;51.130;6.612;2023-05-10T11:38:05;2.75;;;1.88;;
29320;SDS011;16323;51.130;6.612;2023-05-10T11:40:32;3.08;;;2.10;;
29320;SDS011;16323;51.130;6.612;2023-05-10T11:42:59;2.00;;;1.67;;
29320;SDS011;16323;51.130;6.612;2023-05-10T11:45:26;2.63;;;1.90;;
29320;SDS011;16323;51.130;6.612;2023-05-10T11:47:54;3.00;;;1.70;;
29320;SDS011;16323;51.130;6.612;2023-05-10T11:50:21;2.75;;;1.90;;
29320;SDS011;16323;51.130;6.612;2023-05-10T11:52:51;2.92;;;1.90;;
29320;SDS011;16323;51.130;6.612;2023-05-10T11:55:18;3.15;;;2.10;;
29320;SDS011;16323;51.130;6.612;2023-05-10T11:57:45;2.22;;;1.83;;
29320;SDS011;16323;51.130;6.612;2023-05-10T12:00:12;2.78;;;2.03;;
29320;SDS011;16323;51.130;6.612;2023-05-10T12:02:39;2.45;;;1.98;;
29320;SDS011;16323;51.130;6.612;2023-05-10T12:05:07;3.05;;;2.10;;
29320;SDS011;16323;51.130;6.612;2023-05-10T12:07:34;2.92;;;2.22;;
29320;SDS011;16323;51.130;6.612;2023-05-10T12:10:03;2.28;;;1.85;;
29320;SDS011;16323;51.130;6.612;2023-05-10T12:12:38;2.83;;;1.77;;
29320;SDS011;16323;51.130;6.612;2023-05-10T12:15:07;2.95;;;2.13;;
29320;SDS011;16323;51.130;6.612;2023-05-10T12:17:37;2.92;;;2.10;;
29320;SDS011;16323;51.130;6.612;2023-05-10T12:20:18;1.85;;;1.58;;
29320;SDS011;16323;51.130;6.612;2023-05-10T12:22:49;2.45;;;1.98;;
29320;SDS011;16323;51.130;6.612;2023-05-10T12:25:18;2.67;;;1.95;;
29320;SDS011;16323;51.130;6.612;2023-05-10T12:27:50;2.42;;;1.80;;
29320;SDS011;16323;51.130;6.612;2023-05-10T12:30:19;4.35;;;2.20;;
29320;SDS011;16323;51.130;6.612;2023-05-10T12:32:47;3.00;;;1.85;;
29320;SDS011;16323;51.130;6.612;2023-05-10T12:35:13;2.35;;;1.75;;
29320;SDS011;16323;51.130;6.612;2023-05-10T12:37:41;2.20;;;1.85;;
29320;SDS011;16323;51.130;6.612;2023-05-10T12:40:09;2.45;;;1.88;;
29320;SDS011;16323;51.130;6.612;2023-05-10T12:42:38;1.73;;;1.40;;
29320;SDS011;16323;51.130;6.612;2023-05-10T12:45:06;2.47;;;1.70;;
29320;SDS011;16323;51.130;6.612;2023-05-10T12:47:34;2.08;;;1.60;;
29320;SDS011;16323;51.130;6.612;2023-05-10T12:50:01;1.65;;;1.55;;
29320;SDS011;16323;51.130;6.612;2023-05-10T12:52:29;2.20;;;1.90;;
29320;SDS011;16323;51.130;6.612;2023-05-10T12:54:57;2.00;;;1.70;;
29320;SDS011;16323;51.130;6.612;2023-05-10T12:57:24;2.40;;;1.50;;
29320;SDS011;16323;51.130;6.612;2023-05-10T12:59:52;2.35;;;1.70;;
29320;SDS011;16323;51.130;6.612;2023-05-10T13:02:19;2.38;;;1.83;;
29320;SDS011;16323;51.130;6.612;2023-05-10T13:04:48;2.40;;;1.85;;
29320;SDS011;16323;51.130;6.612;2023-05-10T13:07:15;4.72;;;1.92;;
29320;SDS011;16323;51.130;6.612;2023-05-10T13:09:42;2.70;;;1.88;;
29320;SDS011;16323;51.130;6.612;2023-05-10T13:12:08;2.58;;;1.75;;
29320;SDS011;16323;51.130;6.612;2023-05-10T13:14:35;2.15;;;1.75;;
29320;SDS011;16323;51.130;6.612;2023-05-10T13:17:03;2.13;;;1.85;;
29320;SDS011;16323;51.130;6.612;2023-05-10T13:19:30;3.33;;;2.38;;
29320;SDS011;16323;51.130;6.612;2023-05-10T13:21:57;2.40;;;1.80;;
29320;SDS011;16323;51.130;6.612;2023-05-10T13:24:24;3.03;;;2.03;;
29320;SDS011;16323;51.130;6.612;2023-05-10T13:26:50;2.78;;;1.98;;
29320;SDS011;16323;51.130;6.612;2023-05-10T13:29:17;2.70;;;1.73;;
29320;SDS011;16323;51.130;6.612;2023-05-10T13:31:44;3.33;;;2.10;;
29320;SDS011;16323;51.130;6.612;2023-05-10T13:34:12;2.28;;;1.70;;
29320;SDS011;16323;51.130;6.612;2023-05-10T13:36:39;1.92;;;1.60;;
29320;SDS011;16323;51.130;6.612;2023-05-10T13:39:06;2.97;;;1.85;;
29320;SDS011;16323;51.130;6.612;2023-05-10T13:41:33;2.50;;;1.75;;
29320;SDS011;16323;51.130;6.612;2023-05-10T13:44:00;2.45;;;1.80;;
29320;SDS011;16323;51.130;6.612;2023-05-10T13:46:28;3.63;;;2.28;;
29320;SDS011;16323;51.130;6.612;2023-05-10T13:48:55;3.00;;;1.70;;
29320;SDS011;16323;51.130;6.612;2023-05-10T13:51:24;2.00;;;1.52;;
29320;SDS011;16323;51.130;6.612;2023-05-10T13:53:51;1.95;;;1.70;;
29320;SDS011;16323;51.130;6.612;2023-05-10T13:56:17;2.25;;;1.70;;
29320;SDS011;16323;51.130;6.612;2023-05-10T13:58:44;3.17;;;1.63;;
29320;SDS011;16323;51.130;6.612;2023-05-10T14:01:11;1.67;;;1.50;;
29320;SDS011;16323;51.130;6.612;2023-05-10T14:03:38;2.22;;;1.60;;
29320;SDS011;16323;51.130;6.612;2023-05-10T14:06:05;1.70;;;1.40;;
29320;SDS011;16323;51.130;6.612;2023-05-10T14:08:33;3.22;;;1.88;;
29320;SDS011;16323;51.130;6.612;2023-05-10T14:11:00;2.92;;;1.73;;
29320;SDS011;16323;51.130;6.612;2023-05-10T14:13:27;1.67;;;1.38;;
29320;SDS011;16323;51.130;6.612;2023-05-10T14:15:54;1.80;;;1.33;;
29320;SDS011;16323;51.130;6.612;2023-05-10T14:18:21;1.40;;;1.10;;
29320;SDS011;16323;51.130;6.612;2023-05-10T14:20:48;2.00;;;1.50;;
29320;SDS011;16323;51.130;6.612;2023-05-10T14:23:15;2.08;;;1.42;;
29320;SDS011;16323;51.130;6.612;2023-05-10T14:25:43;1.48;;;1.23;;
29320;SDS011;16323;51.130;6.612;2023-05-10T14:28:10;1.90;;;1.23;;
29320;SDS011;16323;51.130;6.612;2023-05-10T14:30:37;2.08;;;1.33;;
29320;SDS011;16323;51.130;6.612;2023-05-10T14:33:03;2.30;;;1.40;;
29320;SDS011;16323;51.130;6.612;2023-05-10T14:35:30;1.85;;;1.30;;
29320;SDS011;16323;51.130;6.612;2023-05-10T14:37:57;1.33;;;1.00;;
29320;SDS011;16323;51.130;6.612;2023-05-10T14:40:24;1.48;;;1.30;;
29320;SDS011;16323;51.130;6.612;2023-05-10T14:42:52;1.65;;;1.08;;
29320;SDS011;16323;51.130;6.612;2023-05-10T14:45:19;2.03;;;1.50;;
29320;SDS011;16323;51.130;6.612;2023-05-10T14:47:47;1.13;;;1.02;;
29320;SDS011;16323;51.130;6.612;2023-05-10T14:50:14;1.67;;;1.20;;
29320;SDS011;16323;51.130;6.612;2023-05-10T14:52:41;1.40;;;1.27;;
29320;SDS011;16323;51.130;6.612;2023-05-10T14:55:08;1.38;;;1.27;;
29320;SDS011;16323;51.130;6.612;2023-05-10T14:57:35;1.80;;;1.48;;
29320;SDS011;16323;51.130;6.612;2023-05-10T15:00:03;1.33;;;1.15;;
29320;SDS011;16323;51.130;6.612;2023-05-10T15:02:31;1.48;;;1.20;;